createdAt,value
2018-12-14T00:01:30.925Z,41.47
2018-12-14T00:03:59.731Z,44.10
2018-12-14T00:06:28.970Z,49.80
2018-12-14T00:08:59.446Z,46.10
2018-12-14T00:12:57.411Z,43.30
2018-12-14T00:15:26.147Z,47.20
2018-12-14T00:17:54.802Z,47.43
2018-12-14T00:20:23.492Z,46.80
2018-12-14T00:22:52.217Z,52.30
2018-12-14T00:25:20.991Z,45.60
2018-12-14T00:27:50.678Z,44.57
2018-12-14T00:30:19.393Z,41.33
2018-12-14T00:32:48.068Z,43.50
2018-12-14T00:35:17.248Z,41.20
2018-12-14T00:37:45.992Z,42.63
2018-12-14T00:40:14.757Z,43.27
2018-12-14T00:42:43.418Z,40.80
2018-12-14T00:45:12.156Z,43.57
2018-12-14T00:47:40.805Z,41.93
2018-12-14T00:50:09.645Z,42.87
2018-12-14T00:52:38.361Z,37.00
2018-12-14T00:55:07.784Z,41.80
2018-12-14T00:57:36.605Z,42.03
2018-12-14T01:00:06.938Z,42.50
2018-12-14T01:02:35.668Z,36.37
2018-12-14T01:05:05.048Z,41.43
2018-12-14T01:07:33.730Z,37.60
2018-12-14T01:10:02.405Z,39.57
2018-12-14T01:12:31.105Z,36.73
2018-12-14T01:15:00.526Z,39.33
2018-12-14T01:17:29.180Z,38.77
2018-12-14T01:19:57.777Z,37.43
2018-12-14T01:22:26.469Z,39.13
2018-12-14T01:24:55.115Z,38.47
2018-12-14T01:27:23.765Z,33.93
2018-12-14T01:29:52.386Z,38.43
2018-12-14T01:32:21.150Z,36.13
2018-12-14T01:34:49.825Z,37.63
2018-12-14T01:37:18.471Z,37.93
2018-12-14T01:39:47.147Z,34.33
2018-12-14T01:42:15.859Z,35.30
2018-12-14T01:44:44.567Z,33.23
2018-12-14T01:47:13.204Z,32.67
2018-12-14T01:49:41.906Z,34.30
2018-12-14T01:52:10.613Z,37.20
2018-12-14T01:54:39.386Z,36.33
2018-12-14T01:57:08.052Z,34.53
2018-12-14T01:59:37.753Z,35.33
2018-12-14T02:02:07.355Z,32.60
2018-12-14T02:04:36.141Z,39.77
2018-12-14T02:07:04.952Z,35.27
2018-12-14T02:09:33.630Z,37.53
2018-12-14T02:12:02.417Z,35.73
2018-12-14T02:14:31.260Z,34.83
2018-12-14T02:16:59.913Z,37.63
2018-12-14T02:19:28.515Z,30.33
2018-12-14T02:21:57.278Z,34.17
2018-12-14T02:24:25.943Z,37.47
2018-12-14T02:26:54.646Z,32.87
2018-12-14T02:29:23.338Z,34.93
2018-12-14T02:31:51.997Z,33.47
2018-12-14T02:34:20.707Z,29.87
2018-12-14T02:36:49.461Z,33.03
2018-12-14T02:39:18.139Z,35.13
2018-12-14T02:41:46.911Z,35.13
2018-12-14T02:44:15.605Z,31.13
2018-12-14T02:46:44.313Z,30.83
2018-12-14T02:49:13.003Z,33.93
2018-12-14T02:51:41.726Z,32.90
2018-12-14T02:54:10.359Z,28.20
2018-12-14T02:56:39.123Z,30.90
2018-12-14T02:59:07.728Z,31.87
2018-12-14T03:01:36.599Z,27.07
2018-12-14T03:04:05.319Z,27.37
2018-12-14T03:06:34.098Z,26.97
2018-12-14T03:09:03.311Z,29.27
2018-12-14T03:11:32.007Z,32.30
2018-12-14T03:14:00.712Z,28.23
2018-12-14T03:16:29.399Z,27.50
2018-12-14T03:18:58.034Z,25.17
2018-12-14T03:21:26.892Z,26.97
2018-12-14T03:23:55.760Z,27.43
2018-12-14T03:26:24.410Z,27.63
2018-12-14T03:28:53.116Z,27.97
2018-12-14T03:31:21.762Z,31.00
2018-12-14T03:33:50.495Z,27.80
2018-12-14T03:36:19.214Z,28.40
2018-12-14T03:38:47.861Z,27.90
2018-12-14T03:41:16.502Z,25.40
2018-12-14T03:43:45.315Z,24.80
2018-12-14T03:46:13.999Z,23.63
2018-12-14T03:48:42.655Z,25.03
2018-12-14T03:51:11.421Z,27.20
2018-12-14T03:53:40.176Z,23.93
2018-12-14T03:56:08.929Z,22.80
2018-12-14T03:58:38.438Z,25.27
2018-12-14T04:01:07.214Z,23.47
2018-12-14T04:03:35.904Z,24.47
2018-12-14T04:06:04.741Z,23.13
2018-12-14T04:08:33.411Z,26.53
2018-12-14T04:11:02.084Z,26.67
2018-12-14T04:13:30.763Z,24.77
2018-12-14T04:15:59.653Z,29.03
2018-12-14T04:18:28.341Z,26.63
2018-12-14T04:20:56.957Z,25.53
2018-12-14T04:23:25.726Z,26.70
2018-12-14T04:25:54.721Z,27.63
2018-12-14T04:28:24.413Z,28.50
2018-12-14T04:30:53.090Z,30.83
2018-12-14T04:33:21.921Z,28.03
2018-12-14T04:35:50.795Z,28.57
2018-12-14T04:38:19.642Z,28.77
2018-12-14T04:40:48.551Z,26.70
2018-12-14T04:43:17.205Z,25.17
2018-12-14T04:45:45.949Z,21.97
2018-12-14T04:48:14.624Z,24.73
2018-12-14T04:50:43.354Z,25.23
2018-12-14T04:53:11.969Z,28.77
2018-12-14T04:55:40.707Z,26.47
2018-12-14T04:58:09.322Z,24.53
2018-12-14T05:00:38.932Z,25.27
2018-12-14T05:03:07.938Z,27.90
2018-12-14T05:05:36.688Z,26.10
2018-12-14T05:08:05.528Z,23.97
2018-12-14T05:10:34.281Z,28.90
2018-12-14T05:13:02.986Z,24.53
2018-12-14T05:15:31.787Z,24.40
2018-12-14T05:18:00.483Z,26.97
2018-12-14T05:20:29.190Z,35.03
2018-12-14T05:22:57.795Z,32.70
2018-12-14T05:25:26.626Z,31.43
2018-12-14T05:27:55.392Z,26.77
2018-12-14T05:30:24.206Z,26.63
2018-12-14T05:32:53.103Z,22.13
2018-12-14T05:35:21.856Z,24.53
2018-12-14T05:37:50.524Z,26.23
2018-12-14T05:40:19.375Z,27.63
2018-12-14T05:42:48.135Z,24.13
2018-12-14T05:45:16.861Z,26.00
2018-12-14T05:47:45.517Z,27.97
2018-12-14T05:50:14.180Z,27.13
2018-12-14T05:52:42.857Z,27.40
2018-12-14T05:55:11.574Z,31.10
2018-12-14T05:57:40.228Z,29.80
2018-12-14T06:00:11.644Z,30.00
2018-12-14T06:02:40.283Z,31.23
2018-12-14T06:05:09.118Z,32.43
2018-12-14T06:07:37.849Z,38.47
2018-12-14T06:10:07.646Z,30.63
2018-12-14T06:12:36.377Z,32.03
2018-12-14T06:15:05.854Z,34.60
2018-12-14T06:17:34.538Z,29.37
2018-12-14T06:20:03.468Z,29.27
2018-12-14T06:22:32.124Z,32.03
2018-12-14T06:25:00.794Z,34.90
2018-12-14T06:27:29.566Z,33.93
2018-12-14T06:29:58.260Z,34.30
2018-12-14T06:32:26.925Z,36.87
2018-12-14T06:34:55.614Z,33.60
2018-12-14T06:37:24.709Z,32.60
2018-12-14T06:39:53.529Z,29.07
2018-12-14T06:42:22.505Z,34.50
2018-12-14T06:44:51.401Z,31.77
2018-12-14T06:47:20.081Z,29.93
2018-12-14T06:49:48.770Z,30.97
2018-12-14T06:52:17.485Z,27.87
2018-12-14T06:54:46.225Z,31.73
2018-12-14T06:57:14.950Z,35.93
2018-12-14T06:59:43.578Z,30.53
2018-12-14T07:02:12.503Z,31.63
2018-12-14T07:04:41.265Z,28.97
2018-12-14T07:07:09.957Z,35.50
2018-12-14T07:09:38.676Z,29.73
2018-12-14T07:12:07.300Z,32.97
2018-12-14T07:14:35.908Z,30.83
2018-12-14T07:17:04.591Z,32.20
2018-12-14T07:19:33.399Z,29.00
2018-12-14T07:22:01.990Z,28.47
2018-12-14T07:24:30.633Z,29.40
2018-12-14T07:26:59.950Z,29.77
2018-12-14T07:29:28.666Z,27.13
2018-12-14T07:31:57.301Z,28.87
2018-12-14T07:34:26.030Z,32.73
2018-12-14T07:36:54.722Z,28.60
2018-12-14T07:39:23.361Z,28.43
2018-12-14T07:41:52.082Z,28.77
2018-12-14T07:44:20.777Z,28.60
2018-12-14T07:46:49.842Z,34.10
2018-12-14T07:49:18.449Z,28.93
2018-12-14T07:51:47.086Z,30.17
2018-12-14T07:54:16.111Z,28.97
2018-12-14T07:56:44.893Z,40.27
2018-12-14T07:59:14.089Z,26.17
2018-12-14T08:01:42.909Z,28.13
2018-12-14T08:04:12.001Z,33.53
2018-12-14T08:06:40.641Z,32.23
2018-12-14T08:09:09.367Z,31.30
2018-12-14T08:11:38.131Z,32.43
2018-12-14T08:14:06.830Z,32.70
2018-12-14T08:16:35.718Z,31.40
2018-12-14T08:19:04.301Z,29.37
2018-12-14T08:21:32.959Z,35.83
2018-12-14T08:24:01.873Z,31.70
2018-12-14T08:26:30.763Z,28.33
2018-12-14T08:28:59.426Z,29.27
2018-12-14T08:31:28.241Z,31.90
2018-12-14T08:33:56.896Z,28.90
2018-12-14T08:36:25.707Z,36.27
2018-12-14T08:38:54.806Z,34.93
2018-12-14T08:41:23.577Z,27.10
2018-12-14T08:43:52.246Z,32.80
2018-12-14T08:46:21.058Z,29.27
2018-12-14T08:48:49.851Z,36.80
2018-12-14T08:51:18.639Z,58.30
2018-12-14T08:53:47.246Z,36.87
2018-12-14T08:56:15.871Z,35.60
2018-12-14T08:58:44.658Z,31.00
2018-12-14T09:01:13.350Z,32.57
2018-12-14T09:03:42.041Z,39.30
2018-12-14T09:06:10.849Z,38.90
2018-12-14T09:08:39.486Z,35.10
2018-12-14T09:11:08.111Z,37.77
2018-12-14T09:13:36.809Z,30.90
2018-12-14T09:16:05.530Z,38.63
2018-12-14T09:18:34.096Z,33.43
2018-12-14T09:21:02.800Z,35.10
2018-12-14T09:23:31.414Z,33.13
2018-12-14T09:26:00.059Z,39.23
2018-12-14T09:28:28.804Z,36.17
2018-12-14T09:30:57.406Z,35.63
2018-12-14T09:33:27.063Z,43.47
2018-12-14T09:35:55.646Z,31.03
2018-12-14T09:38:24.284Z,35.87
2018-12-14T09:40:52.953Z,36.93
2018-12-14T09:43:21.612Z,37.37
2018-12-14T09:45:50.204Z,38.57
2018-12-14T09:48:18.848Z,30.70
2018-12-14T09:50:47.486Z,31.93
2018-12-14T09:53:16.133Z,35.30
2018-12-14T09:55:44.780Z,33.30
2018-12-14T09:58:13.481Z,33.83
2018-12-14T10:00:42.235Z,38.63
2018-12-14T10:03:10.848Z,34.90
2018-12-14T10:05:39.427Z,35.93
2018-12-14T10:08:08.165Z,31.77
2018-12-14T10:10:37.535Z,31.97
2018-12-14T10:13:06.269Z,30.43
2018-12-14T10:15:34.887Z,29.20
2018-12-14T10:18:03.626Z,33.43
2018-12-14T10:20:32.225Z,31.33
2018-12-14T10:23:00.900Z,29.50
2018-12-14T10:25:29.589Z,32.37
2018-12-14T10:27:58.366Z,32.90
2018-12-14T10:30:27.167Z,33.00
2018-12-14T10:32:55.794Z,40.53
2018-12-14T10:35:25.693Z,40.03
2018-12-14T10:37:54.545Z,29.87
2018-12-14T10:40:23.221Z,37.10
2018-12-14T10:42:52.228Z,34.10
2018-12-14T10:45:22.357Z,37.37
2018-12-14T10:47:51.237Z,35.13
2018-12-14T10:50:19.890Z,34.13
2018-12-14T10:52:48.695Z,36.87
2018-12-14T10:55:17.662Z,38.27
2018-12-14T10:57:46.671Z,40.53
2018-12-14T11:00:22.565Z,35.07
2018-12-14T11:02:51.448Z,35.50
2018-12-14T11:05:20.093Z,30.73
2018-12-14T11:07:48.738Z,40.53
2018-12-14T11:10:17.363Z,34.97
2018-12-14T11:12:46.221Z,36.70
2018-12-14T11:15:14.858Z,35.77
2018-12-14T11:17:43.646Z,33.57
2018-12-14T11:20:12.497Z,35.63
2018-12-14T11:22:41.080Z,38.77
2018-12-14T11:25:09.789Z,36.13
2018-12-14T11:27:38.470Z,31.23
2018-12-14T11:30:09.448Z,35.43
2018-12-14T11:32:38.064Z,30.77
2018-12-14T11:35:06.730Z,35.00
2018-12-14T11:37:35.332Z,35.53
2018-12-14T11:40:04.829Z,36.00
2018-12-14T11:42:33.450Z,35.60
2018-12-14T11:45:02.207Z,36.30
2018-12-14T11:47:30.785Z,35.90
2018-12-14T11:49:59.398Z,35.30
2018-12-14T11:52:28.073Z,34.27
2018-12-14T11:54:56.761Z,35.13
2018-12-14T11:57:25.556Z,36.93
2018-12-14T11:59:54.242Z,33.30
2018-12-14T12:02:22.947Z,37.23
2018-12-14T12:04:51.721Z,38.13
2018-12-14T12:07:20.419Z,40.73
2018-12-14T12:09:49.069Z,41.30
2018-12-14T12:12:17.862Z,39.07
2018-12-14T12:14:46.537Z,37.57
2018-12-14T12:17:15.242Z,36.20
2018-12-14T12:19:44.177Z,36.53
2018-12-14T12:22:12.778Z,33.93
2018-12-14T12:24:41.926Z,37.30
2018-12-14T12:27:10.723Z,37.67
2018-12-14T12:29:39.419Z,36.47
2018-12-14T12:32:08.061Z,41.90
2018-12-14T12:34:36.976Z,41.13
2018-12-14T12:37:05.670Z,43.47
2018-12-14T12:39:34.449Z,41.53
2018-12-14T12:42:03.120Z,40.10
2018-12-14T12:44:33.704Z,38.53
2018-12-14T12:47:02.473Z,40.77
2018-12-14T12:49:31.223Z,38.40
2018-12-14T12:51:59.894Z,39.87
2018-12-14T12:54:28.696Z,43.23
2018-12-14T12:56:57.375Z,38.60
2018-12-14T12:59:26.055Z,40.77
2018-12-14T13:01:55.222Z,42.83
2018-12-14T13:04:24.003Z,50.40
2018-12-14T13:06:52.623Z,41.27
2018-12-14T13:09:21.326Z,46.17
2018-12-14T13:11:49.991Z,41.23
2018-12-14T13:14:18.741Z,43.27
2018-12-14T13:16:47.694Z,42.93
2018-12-14T13:19:16.335Z,40.73
2018-12-14T13:21:45.057Z,36.13
2018-12-14T13:24:13.724Z,38.83
2018-12-14T13:26:42.394Z,37.00
2018-12-14T13:29:11.225Z,37.03
2018-12-14T13:31:40.110Z,39.90
2018-12-14T13:34:09.077Z,39.37
2018-12-14T13:36:37.993Z,38.83
2018-12-14T13:39:07.405Z,38.37
2018-12-14T13:41:36.080Z,41.67
2018-12-14T13:44:04.898Z,43.03
2018-12-14T13:46:33.778Z,46.17
2018-12-14T13:49:02.912Z,45.60
2018-12-14T13:51:31.834Z,39.97
2018-12-14T13:54:00.440Z,44.60
2018-12-14T13:56:29.050Z,47.77
2018-12-14T13:58:57.764Z,55.40
2018-12-14T14:01:26.584Z,63.67
2018-12-14T14:03:55.268Z,47.57
2018-12-14T14:06:23.867Z,62.77
2018-12-14T14:08:52.516Z,62.73
2018-12-14T14:11:21.253Z,67.67
2018-12-14T14:13:50.050Z,58.43
2018-12-14T14:16:18.627Z,48.10
2018-12-14T14:18:47.218Z,48.07
2018-12-14T14:21:15.975Z,44.67
2018-12-14T14:23:44.659Z,44.17
2018-12-14T14:26:13.331Z,37.93
2018-12-14T14:28:41.894Z,48.27
2018-12-14T14:31:10.502Z,49.17
2018-12-14T14:33:39.283Z,49.43
2018-12-14T14:36:08.052Z,51.60
2018-12-14T14:38:36.653Z,63.33
2018-12-14T14:41:05.329Z,62.40
2018-12-14T14:43:33.944Z,59.93
2018-12-14T14:46:02.566Z,66.77
2018-12-14T14:48:31.274Z,63.20
2018-12-14T14:50:59.891Z,53.47
2018-12-14T14:53:28.660Z,53.37
2018-12-14T14:55:57.448Z,58.37
2018-12-14T14:58:26.055Z,49.80
2018-12-14T15:00:54.700Z,53.43
2018-12-14T15:03:23.526Z,50.47
2018-12-14T15:05:52.114Z,49.07
2018-12-14T15:08:21.545Z,55.13
2018-12-14T15:10:50.125Z,49.87
2018-12-14T15:13:18.713Z,51.30
2018-12-14T15:15:47.369Z,57.17
2018-12-14T15:18:15.954Z,59.83
2018-12-14T15:20:44.523Z,59.83
2018-12-14T15:23:13.105Z,57.67
2018-12-14T15:25:41.726Z,66.03
2018-12-14T15:28:10.326Z,66.63
2018-12-14T15:30:39.039Z,50.07
2018-12-14T15:33:07.608Z,47.07
2018-12-14T15:35:36.203Z,44.57
2018-12-14T15:38:04.909Z,41.40
2018-12-14T15:40:33.579Z,44.70
2018-12-14T15:43:02.154Z,43.83
2018-12-14T15:45:30.905Z,47.73
2018-12-14T15:47:59.732Z,51.93
2018-12-14T15:50:28.434Z,57.17
2018-12-14T15:52:57.133Z,57.37
2018-12-14T15:55:25.761Z,53.37
2018-12-14T15:57:54.338Z,59.43
2018-12-14T16:00:23.259Z,54.30
2018-12-14T16:02:52.028Z,64.70
2018-12-14T16:05:20.632Z,66.30
2018-12-14T16:07:49.253Z,63.00
2018-12-14T16:10:17.965Z,64.00
2018-12-14T16:12:46.581Z,59.07
2018-12-14T16:15:20.161Z,68.00
2018-12-14T16:17:45.950Z,71.77
2018-12-14T16:20:14.683Z,65.97
2018-12-14T16:22:43.568Z,71.60
2018-12-14T16:25:12.285Z,80.97
2018-12-14T16:27:40.989Z,77.17
2018-12-14T16:30:10.701Z,92.07
2018-12-14T16:32:40.591Z,113.30
2018-12-14T16:35:09.319Z,115.60
2018-12-14T16:37:38.029Z,99.10
2018-12-14T16:40:07.446Z,89.73
2018-12-14T16:42:36.217Z,86.33
2018-12-14T16:45:05.757Z,62.40
2018-12-14T16:47:34.413Z,50.10
2018-12-14T16:50:03.173Z,48.73
2018-12-14T16:52:32.011Z,54.33
2018-12-14T16:55:00.988Z,50.47
2018-12-14T16:57:29.713Z,54.10
2018-12-14T16:59:58.511Z,57.87
2018-12-14T17:02:27.168Z,51.33
2018-12-14T17:04:55.845Z,53.70
2018-12-14T17:07:24.512Z,56.83
2018-12-14T17:09:53.148Z,51.17
2018-12-14T17:12:21.817Z,54.63
2018-12-14T17:14:50.468Z,54.67
2018-12-14T17:17:19.244Z,51.03
2018-12-14T17:19:47.975Z,61.87
2018-12-14T17:22:16.932Z,56.63
2018-12-14T17:24:45.767Z,60.57
2018-12-14T17:27:14.408Z,62.00
2018-12-14T17:29:43.234Z,61.80
2018-12-14T17:32:11.877Z,59.03
2018-12-14T17:34:40.658Z,60.40
2018-12-14T17:37:09.504Z,58.17
2018-12-14T17:39:38.208Z,56.47
2018-12-14T17:42:06.924Z,54.93
2018-12-14T17:44:35.519Z,54.43
2018-12-14T17:47:04.394Z,51.80
2018-12-14T17:49:32.998Z,54.33
2018-12-14T17:52:02.013Z,54.77
2018-12-14T17:54:30.702Z,51.33
2018-12-14T17:56:59.461Z,51.63
2018-12-14T17:59:28.107Z,49.13
2018-12-14T18:01:56.930Z,43.80
2018-12-14T18:04:25.716Z,44.80
2018-12-14T18:06:54.477Z,46.70
2018-12-14T18:09:23.187Z,45.17
2018-12-14T18:11:51.874Z,50.10
2018-12-14T18:14:20.594Z,52.87
2018-12-14T18:16:49.289Z,47.33
2018-12-14T18:19:17.926Z,52.50
2018-12-14T18:21:46.515Z,49.60
2018-12-14T18:24:15.399Z,47.63
2018-12-14T18:26:44.002Z,49.43
2018-12-14T18:29:12.652Z,54.67
2018-12-14T18:31:41.261Z,54.63
2018-12-14T18:34:09.923Z,53.90
2018-12-14T18:36:38.917Z,57.10
2018-12-14T18:46:10.556Z,59.20
2018-12-14T18:48:39.456Z,54.67
2018-12-14T18:51:08.157Z,57.43
2018-12-14T18:53:36.810Z,55.83
2018-12-14T18:56:05.695Z,59.73
2018-12-14T18:58:34.310Z,60.60
2018-12-14T19:01:02.943Z,63.43
2018-12-14T19:03:31.589Z,64.73
2018-12-14T19:06:00.243Z,71.47
2018-12-14T19:08:28.904Z,60.60
2018-12-14T19:10:57.625Z,64.27
2018-12-14T19:13:26.265Z,60.73
2018-12-14T19:15:59.707Z,62.47
2018-12-14T19:18:25.669Z,59.97
2018-12-14T19:20:54.455Z,59.93
2018-12-14T19:23:23.065Z,64.53
2018-12-14T19:25:51.724Z,68.90
2018-12-14T19:28:20.352Z,64.63
2018-12-14T19:30:48.942Z,61.27
2018-12-14T19:33:17.719Z,63.20
2018-12-14T19:35:46.463Z,59.67
2018-12-14T19:38:15.734Z,61.07
2018-12-14T19:40:44.317Z,55.67
2018-12-14T19:43:12.914Z,53.03
2018-12-14T19:45:41.510Z,54.40
2018-12-14T19:48:10.105Z,57.03
2018-12-14T19:50:38.787Z,60.33
2018-12-14T19:53:07.375Z,75.00
2018-12-14T19:55:35.996Z,82.37
2018-12-14T19:58:04.692Z,82.37
2018-12-14T20:00:33.375Z,86.83
2018-12-14T20:03:02.020Z,67.40
2018-12-14T20:05:30.684Z,76.57
2018-12-14T20:07:59.675Z,69.60
2018-12-14T20:10:28.565Z,69.53
2018-12-14T20:12:57.229Z,67.97
2018-12-14T20:15:25.927Z,67.10
2018-12-14T20:17:54.527Z,63.00
2018-12-14T20:20:23.241Z,62.70
2018-12-14T20:22:51.841Z,69.80
2018-12-14T20:25:20.437Z,68.97
2018-12-14T20:27:49.056Z,69.27
2018-12-14T20:30:17.636Z,72.70
2018-12-14T20:32:46.320Z,72.00
2018-12-14T20:35:15.183Z,69.87
2018-12-14T20:37:44.202Z,74.93
2018-12-14T20:40:12.829Z,69.43
2018-12-14T20:42:41.449Z,68.47
2018-12-14T20:45:10.079Z,61.87
2018-12-14T20:47:38.665Z,69.63
2018-12-14T20:50:08.366Z,60.13
2018-12-14T20:52:37.017Z,64.93
2018-12-14T20:55:07.762Z,64.40
2018-12-14T20:57:36.393Z,59.97
2018-12-14T21:00:06.899Z,68.77
2018-12-14T21:02:35.678Z,62.33
2018-12-14T21:05:04.584Z,65.50
2018-12-14T21:07:33.178Z,60.03
2018-12-14T21:10:01.853Z,56.80
2018-12-14T21:12:30.450Z,61.13
2018-12-14T21:14:59.049Z,59.77
2018-12-14T21:17:27.667Z,61.43
2018-12-14T21:19:56.391Z,64.67
2018-12-14T21:22:25.020Z,60.33
2018-12-14T21:24:53.725Z,59.43
2018-12-14T21:27:22.400Z,74.93
2018-12-14T21:29:51.009Z,64.37
2018-12-14T21:32:19.573Z,68.33
2018-12-14T21:34:49.185Z,58.50
2018-12-14T21:37:17.885Z,54.27
2018-12-14T21:39:47.863Z,55.77
2018-12-14T21:42:16.598Z,62.13
2018-12-14T21:44:45.262Z,59.13
2018-12-14T21:47:14.754Z,58.53
2018-12-14T21:49:43.643Z,65.13
2018-12-14T21:52:12.330Z,60.87
2018-12-14T21:54:40.967Z,62.50
2018-12-14T21:57:09.801Z,65.60
2018-12-14T21:59:38.457Z,58.27
2018-12-14T22:02:07.269Z,63.33
2018-12-14T22:04:35.945Z,60.73
2018-12-14T22:07:04.613Z,63.13
2018-12-14T22:09:33.430Z,60.70
2018-12-14T22:12:02.085Z,67.10
2018-12-14T22:14:30.905Z,67.47
2018-12-14T22:16:59.686Z,67.07
2018-12-14T22:19:28.344Z,73.10
2018-12-14T22:21:57.036Z,69.43
2018-12-14T22:24:25.747Z,65.73
2018-12-14T22:26:54.480Z,62.23
2018-12-14T22:29:23.115Z,66.27
2018-12-14T22:31:51.850Z,63.43
2018-12-14T22:34:20.501Z,69.70
2018-12-14T22:36:49.186Z,69.37
2018-12-14T22:39:18.469Z,72.47
2018-12-14T22:41:47.154Z,62.43
2018-12-14T22:44:21.252Z,70.67
2018-12-14T22:46:46.563Z,63.60
2018-12-14T22:49:15.225Z,80.80
2018-12-14T22:51:43.913Z,73.23
2018-12-14T22:54:12.614Z,63.80
2018-12-14T22:56:41.540Z,67.03
2018-12-14T22:59:10.237Z,65.63
2018-12-14T23:01:39.124Z,61.33
2018-12-14T23:04:07.766Z,60.83
2018-12-14T23:06:36.539Z,66.43
2018-12-14T23:09:07.013Z,69.93
2018-12-14T23:11:36.740Z,72.40
2018-12-14T23:14:05.509Z,84.53
2018-12-14T23:16:34.209Z,86.47
2018-12-14T23:19:02.851Z,74.03
2018-12-14T23:21:31.552Z,73.67
2018-12-14T23:24:00.369Z,59.13
2018-12-14T23:26:29.093Z,61.73
2018-12-14T23:28:57.786Z,60.53
2018-12-14T23:31:26.410Z,65.67
2018-12-14T23:33:55.079Z,67.67
2018-12-14T23:36:23.739Z,60.80
2018-12-14T23:38:52.635Z,62.03
2018-12-14T23:41:21.430Z,55.63
2018-12-14T23:43:50.097Z,62.07
2018-12-14T23:46:18.678Z,54.70
2018-12-14T23:48:47.527Z,56.47
2018-12-14T23:51:16.201Z,56.37
2018-12-14T23:53:45.105Z,53.13
2018-12-14T23:56:13.789Z,50.63
2018-12-14T23:58:42.449Z,54.50
